If you wish to contribute or participate in the discussions about articles you are invited to join SKYbrary as a registered user

 Actions

Blackpool International Airport

From SKYbrary Wiki

EGNH
Airport
ICAO: EGNH – IATA: BLK
Summary
Name Blackpool International Airport
Region Europe
Territory United Kingdom GB.gif
Location St Annes-on-the-Sea, Lancashire, England
Serving Blackpool
Elevation 10.363 m
34 ft
34 ft10.363 m
Coordinates 53° 46' 17.00" N, 3° 1' 42.00" W
Runways
Designator Length Width Surface ROPS
7/25 799 m2,621.391 ft
30 m98.425 ft
ASP no/no
10/28 1869 m6,131.89 ft
46 m150.919 ft
ASP yes/yes
13/31 1077 m3,533.465 ft
23 m75.459 ft
ASP yes/yes


METAR
Observation EGNH 101020Z 32011KT 9999 FEW034 15/09 Q1018
Station Blackpool Airport
Date/Time 10 June 2019 10:20:00
Wind direction 320°
Wind speed 11 kts
Lowest cloud amount few clouds
Temperature 15°C
Dew point 9°C
Humidity 67%
QNH 1018 hPa
Weather condition n/a

Blackpool Airport

ICAO: EGNH IATA: BLK

Description

Regional airport serving Blackpool.

Climatology

Temperate Marine climate/Oceanic climate (Köppen climate classification Cfb). Moderately cool summer and comparatively warm winter with a temperature range of only 14°C57.2 °F
287.15 K
516.87 °R
. Prevailing onshore south-westerly winds.

Maps

Terrain

Loading map...

Airport Layout

Loading map...


Accidents & Serious Incidents at or in vicinity of EGNH

None on SKYbrary